sensor_id;sensor_type;location;lat;lon;timestamp;temperature;humidity
5218;DHT22;26539;51.064;6.346;2023-12-28T00:02:15;10.80;99.90
5218;DHT22;26539;51.064;6.346;2023-12-28T00:04:41;10.70;1.00
5218;DHT22;26539;51.064;6.346;2023-12-28T00:07:06;10.70;1.00
5218;DHT22;26539;51.064;6.346;2023-12-28T00:09:32;10.60;99.90
5218;DHT22;26539;51.064;6.346;2023-12-28T00:11:58;10.60;99.90
5218;DHT22;26539;51.064;6.346;2023-12-28T00:14:24;10.50;1.00
5218;DHT22;26539;51.064;6.346;2023-12-28T00:16:49;10.50;99.90
5218;DHT22;26539;51.064;6.346;2023-12-28T00:19:15;10.50;1.00
5218;DHT22;26539;51.064;6.346;2023-12-28T00:21:40;10.50;1.00
5218;DHT22;26539;51.064;6.346;2023-12-28T00:24:06;10.40;45.70
5218;DHT22;26539;51.064;6.346;2023-12-28T00:26:32;10.40;91.50
5218;DHT22;26539;51.064;6.346;2023-12-28T00:28:57;10.40;90.70
5218;DHT22;26539;51.064;6.346;2023-12-28T00:31:23;10.40;1.00
5218;DHT22;26539;51.064;6.346;2023-12-28T00:33:48;10.40;1.00
5218;DHT22;26539;51.064;6.346;2023-12-28T00:36:15;10.40;1.00
5218;DHT22;26539;51.064;6.346;2023-12-28T00:38:41;10.40;1.00
5218;DHT22;26539;51.064;6.346;2023-12-28T00:41:07;10.40;1.00
5218;DHT22;26539;51.064;6.346;2023-12-28T00:43:32;10.40;1.00
5218;DHT22;26539;51.064;6.346;2023-12-28T00:45:58;10.40;1.00
5218;DHT22;26539;51.064;6.346;2023-12-28T00:48:23;10.40;99.90
5218;DHT22;26539;51.064;6.346;2023-12-28T00:50:49;10.40;99.90
5218;DHT22;26539;51.064;6.346;2023-12-28T00:53:14;10.40;99.90
5218;DHT22;26539;51.064;6.346;2023-12-28T00:55:40;10.40;5.20
5218;DHT22;26539;51.064;6.346;2023-12-28T00:58:06;10.40;1.00
5218;DHT22;26539;51.064;6.346;2023-12-28T01:00:31;10.50;1.00
5218;DHT22;26539;51.064;6.346;2023-12-28T01:02:57;10.50;1.00
5218;DHT22;26539;51.064;6.346;2023-12-28T01:05:22;10.50;1.00
5218;DHT22;26539;51.064;6.346;2023-12-28T01:07:51;10.50;1.00
5218;DHT22;26539;51.064;6.346;2023-12-28T01:10:17;10.50;1.00
5218;DHT22;26539;51.064;6.346;2023-12-28T01:12:42;10.50;1.00
5218;DHT22;26539;51.064;6.346;2023-12-28T01:15:08;10.50;99.90
5218;DHT22;26539;51.064;6.346;2023-12-28T01:17:33;10.60;99.90
5218;DHT22;26539;51.064;6.346;2023-12-28T01:19:59;10.60;99.90
5218;DHT22;26539;51.064;6.346;2023-12-28T01:22:25;10.60;99.90
5218;DHT22;26539;51.064;6.346;2023-12-28T01:24:50;10.60;99.90
5218;DHT22;26539;51.064;6.346;2023-12-28T01:27:16;10.60;99.90
5218;DHT22;26539;51.064;6.346;2023-12-28T01:29:41;10.60;99.90
5218;DHT22;26539;51.064;6.346;2023-12-28T01:32:07;10.60;1.00
5218;DHT22;26539;51.064;6.346;2023-12-28T01:34:32;10.60;1.00
5218;DHT22;26539;51.064;6.346;2023-12-28T01:36:58;10.60;1.00
5218;DHT22;26539;51.064;6.346;2023-12-28T01:39:23;10.70;1.00
5218;DHT22;26539;51.064;6.346;2023-12-28T01:41:49;10.70;1.00
5218;DHT22;26539;51.064;6.346;2023-12-28T01:44:15;10.70;1.00
5218;DHT22;26539;51.064;6.346;2023-12-28T01:46:41;10.70;99.90
5218;DHT22;26539;51.064;6.346;2023-12-28T01:49:07;10.70;99.90
5218;DHT22;26539;51.064;6.346;2023-12-28T01:51:33;10.70;99.90
5218;DHT22;26539;51.064;6.346;2023-12-28T01:54:00;10.70;99.90
5218;DHT22;26539;51.064;6.346;2023-12-28T01:56:26;10.70;1.00
5218;DHT22;26539;51.064;6.346;2023-12-28T01:58:53;10.70;1.00
5218;DHT22;26539;51.064;6.346;2023-12-28T02:01:19;10.70;1.00
5218;DHT22;26539;51.064;6.346;2023-12-28T02:03:45;10.80;1.00
5218;DHT22;26539;51.064;6.346;2023-12-28T02:06:13;10.80;1.00
5218;DHT22;26539;51.064;6.346;2023-12-28T02:08:41;10.80;34.70
5218;DHT22;26539;51.064;6.346;2023-12-28T02:11:07;10.70;99.90
5218;DHT22;26539;51.064;6.346;2023-12-28T02:13:32;10.70;99.90
5218;DHT22;26539;51.064;6.346;2023-12-28T02:16:47;10.70;99.90
5218;DHT22;26539;51.064;6.346;2023-12-28T02:18:50;10.70;99.90
5218;DHT22;26539;51.064;6.346;2023-12-28T02:21:17;10.70;99.90
5218;DHT22;26539;51.064;6.346;2023-12-28T02:23:47;10.70;1.00
5218;DHT22;26539;51.064;6.346;2023-12-28T02:26:13;10.70;1.00
5218;DHT22;26539;51.064;6.346;2023-12-28T02:28:38;10.70;1.00
5218;DHT22;26539;51.064;6.346;2023-12-28T02:31:05;10.60;1.00
5218;DHT22;26539;51.064;6.346;2023-12-28T02:33:42;10.60;1.00
5218;DHT22;26539;51.064;6.346;2023-12-28T02:36:10;10.60;1.00
5218;DHT22;26539;51.064;6.346;2023-12-28T02:38:38;10.50;1.00
5218;DHT22;26539;51.064;6.346;2023-12-28T02:41:04;10.50;26.60
5218;DHT22;26539;51.064;6.346;2023-12-28T02:43:30;10.50;54.00
5218;DHT22;26539;51.064;6.346;2023-12-28T02:45:57;10.50;45.30
5218;DHT22;26539;51.064;6.346;2023-12-28T02:48:22;10.50;76.40
5218;DHT22;26539;51.064;6.346;2023-12-28T02:50:48;10.50;99.90
5218;DHT22;26539;51.064;6.346;2023-12-28T02:53:13;10.40;78.10
5218;DHT22;26539;51.064;6.346;2023-12-28T02:55:39;10.40;99.90
5218;DHT22;26539;51.064;6.346;2023-12-28T02:58:04;10.40;99.90
5218;DHT22;26539;51.064;6.346;2023-12-28T03:00:30;10.40;99.90
5218;DHT22;26539;51.064;6.346;2023-12-28T03:02:56;10.40;99.90
5218;DHT22;26539;51.064;6.346;2023-12-28T03:05:23;10.40;99.90
5218;DHT22;26539;51.064;6.346;2023-12-28T03:07:48;10.40;99.90
5218;DHT22;26539;51.064;6.346;2023-12-28T03:10:14;10.40;99.90
5218;DHT22;26539;51.064;6.346;2023-12-28T03:12:39;10.30;99.90
5218;DHT22;26539;51.064;6.346;2023-12-28T03:15:05;10.30;99.90
5218;DHT22;26539;51.064;6.346;2023-12-28T03:17:31;10.30;99.90
5218;DHT22;26539;51.064;6.346;2023-12-28T03:19:58;10.30;99.90
5218;DHT22;26539;51.064;6.346;2023-12-28T03:22:24;10.30;99.90
5218;DHT22;26539;51.064;6.346;2023-12-28T03:24:49;10.30;99.90
5218;DHT22;26539;51.064;6.346;2023-12-28T03:27:15;10.30;99.90
5218;DHT22;26539;51.064;6.346;2023-12-28T03:29:41;10.30;99.90
5218;DHT22;26539;51.064;6.346;2023-12-28T03:32:08;10.30;99.90
5218;DHT22;26539;51.064;6.346;2023-12-28T03:34:34;10.30;99.90
5218;DHT22;26539;51.064;6.346;2023-12-28T03:37:00;10.30;99.90
5218;DHT22;26539;51.064;6.346;2023-12-28T03:39:25;10.30;99.90
5218;DHT22;26539;51.064;6.346;2023-12-28T03:41:51;10.30;99.90
5218;DHT22;26539;51.064;6.346;2023-12-28T03:44:19;10.30;99.90
5218;DHT22;26539;51.064;6.346;2023-12-28T03:46:46;10.30;99.90
5218;DHT22;26539;51.064;6.346;2023-12-28T03:49:12;10.30;99.90
5218;DHT22;26539;51.064;6.346;2023-12-28T03:51:40;10.30;99.90
5218;DHT22;26539;51.064;6.346;2023-12-28T03:54:05;10.30;99.90
5218;DHT22;26539;51.064;6.346;2023-12-28T03:56:31;10.30;99.90
5218;DHT22;26539;51.064;6.346;2023-12-28T03:58:58;10.30;99.90
5218;DHT22;26539;51.064;6.346;2023-12-28T04:01:23;10.30;99.90
5218;DHT22;26539;51.064;6.346;2023-12-28T04:03:49;10.30;99.90
5218;DHT22;26539;51.064;6.346;2023-12-28T04:06:15;10.30;99.90
5218;DHT22;26539;51.064;6.346;2023-12-28T04:08:41;10.30;99.90
5218;DHT22;26539;51.064;6.346;2023-12-28T04:11:07;10.30;99.90
5218;DHT22;26539;51.064;6.346;2023-12-28T04:13:33;10.30;99.90
5218;DHT22;26539;51.064;6.346;2023-12-28T04:15:58;10.30;99.90
5218;DHT22;26539;51.064;6.346;2023-12-28T04:18:24;10.30;99.90
5218;DHT22;26539;51.064;6.346;2023-12-28T04:20:49;10.30;99.90
5218;DHT22;26539;51.064;6.346;2023-12-28T04:23:15;10.30;99.90
5218;DHT22;26539;51.064;6.346;2023-12-28T04:25:41;10.30;99.90
5218;DHT22;26539;51.064;6.346;2023-12-28T04:28:07;10.30;99.90
5218;DHT22;26539;51.064;6.346;2023-12-28T04:30:33;10.20;99.90
5218;DHT22;26539;51.064;6.346;2023-12-28T04:32:58;10.20;99.90
5218;DHT22;26539;51.064;6.346;2023-12-28T04:35:24;10.20;99.90
5218;DHT22;26539;51.064;6.346;2023-12-28T04:37:49;10.20;99.90
5218;DHT22;26539;51.064;6.346;2023-12-28T04:40:15;10.20;99.90
5218;DHT22;26539;51.064;6.346;2023-12-28T04:42:41;10.20;99.90
5218;DHT22;26539;51.064;6.346;2023-12-28T04:45:07;10.20;99.90
5218;DHT22;26539;51.064;6.346;2023-12-28T04:47:32;10.20;99.90
5218;DHT22;26539;51.064;6.346;2023-12-28T04:49:58;10.20;99.90
5218;DHT22;26539;51.064;6.346;2023-12-28T04:52:23;10.20;99.90
5218;DHT22;26539;51.064;6.346;2023-12-28T04:54:49;10.20;99.90
5218;DHT22;26539;51.064;6.346;2023-12-28T04:57:15;10.20;99.90
5218;DHT22;26539;51.064;6.346;2023-12-28T04:59:40;10.20;99.90
5218;DHT22;26539;51.064;6.346;2023-12-28T05:02:06;10.30;99.90
5218;DHT22;26539;51.064;6.346;2023-12-28T05:04:32;10.30;99.90
5218;DHT22;26539;51.064;6.346;2023-12-28T05:06:57;10.30;99.90
5218;DHT22;26539;51.064;6.346;2023-12-28T05:09:23;10.30;99.90
5218;DHT22;26539;51.064;6.346;2023-12-28T05:11:48;10.40;1.00
5218;DHT22;26539;51.064;6.346;2023-12-28T05:14:14;10.40;1.00
5218;DHT22;26539;51.064;6.346;2023-12-28T05:16:39;10.40;1.00
5218;DHT22;26539;51.064;6.346;2023-12-28T05:19:05;10.50;1.00
5218;DHT22;26539;51.064;6.346;2023-12-28T05:21:30;10.50;1.00
5218;DHT22;26539;51.064;6.346;2023-12-28T05:23:56;10.50;1.00
5218;DHT22;26539;51.064;6.346;2023-12-28T05:26:21;10.60;1.00
5218;DHT22;26539;51.064;6.346;2023-12-28T05:28:48;10.60;1.00
5218;DHT22;26539;51.064;6.346;2023-12-28T05:31:14;10.60;99.90
5218;DHT22;26539;51.064;6.346;2023-12-28T05:33:39;10.60;99.90
5218;DHT22;26539;51.064;6.346;2023-12-28T05:36:05;10.60;99.90
5218;DHT22;26539;51.064;6.346;2023-12-28T05:38:31;10.70;99.90
5218;DHT22;26539;51.064;6.346;2023-12-28T05:40:57;10.70;99.90
5218;DHT22;26539;51.064;6.346;2023-12-28T05:43:22;10.70;54.90
5218;DHT22;26539;51.064;6.346;2023-12-28T05:45:48;10.70;1.00
5218;DHT22;26539;51.064;6.346;2023-12-28T05:48:13;10.70;1.00
5218;DHT22;26539;51.064;6.346;2023-12-28T05:50:39;10.70;1.00
5218;DHT22;26539;51.064;6.346;2023-12-28T05:53:05;10.70;1.00
5218;DHT22;26539;51.064;6.346;2023-12-28T05:55:30;10.70;1.00
5218;DHT22;26539;51.064;6.346;2023-12-28T05:57:56;10.70;99.90
5218;DHT22;26539;51.064;6.346;2023-12-28T06:00:22;10.70;99.90
5218;DHT22;26539;51.064;6.346;2023-12-28T06:02:47;10.70;99.90
5218;DHT22;26539;51.064;6.346;2023-12-28T06:05:17;10.70;99.90
5218;DHT22;26539;51.064;6.346;2023-12-28T06:07:42;10.70;99.90
5218;DHT22;26539;51.064;6.346;2023-12-28T06:10:08;10.70;87.70
5218;DHT22;26539;51.064;6.346;2023-12-28T06:12:34;10.70;99.90
5218;DHT22;26539;51.064;6.346;2023-12-28T06:14:59;10.70;99.90
5218;DHT22;26539;51.064;6.346;2023-12-28T06:17:25;10.70;7.20
5218;DHT22;26539;51.064;6.346;2023-12-28T06:19:50;10.70;99.90
5218;DHT22;26539;51.064;6.346;2023-12-28T06:22:16;10.80;1.00
5218;DHT22;26539;51.064;6.346;2023-12-28T06:24:41;10.80;1.00
5218;DHT22;26539;51.064;6.346;2023-12-28T06:27:07;10.80;1.00
5218;DHT22;26539;51.064;6.346;2023-12-28T06:29:32;10.80;99.90
5218;DHT22;26539;51.064;6.346;2023-12-28T06:31:58;10.80;99.90
5218;DHT22;26539;51.064;6.346;2023-12-28T06:34:23;10.70;99.90
5218;DHT22;26539;51.064;6.346;2023-12-28T06:36:49;10.70;99.90
5218;DHT22;26539;51.064;6.346;2023-12-28T06:39:14;10.60;1.00
5218;DHT22;26539;51.064;6.346;2023-12-28T06:41:40;10.60;1.00
5218;DHT22;26539;51.064;6.346;2023-12-28T06:44:05;10.60;1.00
5218;DHT22;26539;51.064;6.346;2023-12-28T06:46:31;10.60;1.00
5218;DHT22;26539;51.064;6.346;2023-12-28T06:48:56;10.60;1.00
5218;DHT22;26539;51.064;6.346;2023-12-28T06:51:24;10.70;1.00
5218;DHT22;26539;51.064;6.346;2023-12-28T06:53:49;10.70;99.90
5218;DHT22;26539;51.064;6.346;2023-12-28T06:56:15;10.70;99.90
5218;DHT22;26539;51.064;6.346;2023-12-28T06:58:41;10.70;99.90
5218;DHT22;26539;51.064;6.346;2023-12-28T07:01:06;10.70;99.90
5218;DHT22;26539;51.064;6.346;2023-12-28T07:03:32;10.70;99.90
5218;DHT22;26539;51.064;6.346;2023-12-28T07:05:59;10.70;1.00
5218;DHT22;26539;51.064;6.346;2023-12-28T07:08:24;10.70;1.00
5218;DHT22;26539;51.064;6.346;2023-12-28T07:10:50;10.70;1.00
5218;DHT22;26539;51.064;6.346;2023-12-28T07:13:15;10.80;1.00
5218;DHT22;26539;51.064;6.346;2023-12-28T07:15:41;10.80;1.00
5218;DHT22;26539;51.064;6.346;2023-12-28T07:18:06;10.80;1.00
5218;DHT22;26539;51.064;6.346;2023-12-28T07:20:32;10.80;1.00
5218;DHT22;26539;51.064;6.346;2023-12-28T07:22:57;10.80;1.00
5218;DHT22;26539;51.064;6.346;2023-12-28T07:25:23;10.80;1.00
5218;DHT22;26539;51.064;6.346;2023-12-28T07:27:49;10.80;1.00
5218;DHT22;26539;51.064;6.346;2023-12-28T07:30:14;10.80;99.90
5218;DHT22;26539;51.064;6.346;2023-12-28T07:32:42;10.80;99.90
5218;DHT22;26539;51.064;6.346;2023-12-28T07:35:08;10.80;99.90
5218;DHT22;26539;51.064;6.346;2023-12-28T07:37:34;10.80;99.90
5218;DHT22;26539;51.064;6.346;2023-12-28T07:40:00;10.90;99.90
5218;DHT22;26539;51.064;6.346;2023-12-28T07:42:26;10.90;28.80
5218;DHT22;26539;51.064;6.346;2023-12-28T07:44:51;10.90;1.00
5218;DHT22;26539;51.064;6.346;2023-12-28T07:47:17;10.90;1.00
5218;DHT22;26539;51.064;6.346;2023-12-28T07:49:42;10.90;1.00
5218;DHT22;26539;51.064;6.346;2023-12-28T07:52:08;10.90;99.90
5218;DHT22;26539;51.064;6.346;2023-12-28T07:54:33;10.90;99.90
5218;DHT22;26539;51.064;6.346;2023-12-28T07:56:59;10.90;99.90
5218;DHT22;26539;51.064;6.346;2023-12-28T07:59:25;10.90;99.90
5218;DHT22;26539;51.064;6.346;2023-12-28T08:01:51;10.90;99.90
5218;DHT22;26539;51.064;6.346;2023-12-28T08:04:16;10.90;99.90
5218;DHT22;26539;51.064;6.346;2023-12-28T08:06:42;11.00;99.90
5218;DHT22;26539;51.064;6.346;2023-12-28T08:09:07;11.00;99.90
5218;DHT22;26539;51.064;6.346;2023-12-28T08:11:34;11.00;99.90
5218;DHT22;26539;51.064;6.346;2023-12-28T08:13:59;11.00;99.90
5218;DHT22;26539;51.064;6.346;2023-12-28T08:16:25;11.00;99.90
5218;DHT22;26539;51.064;6.346;2023-12-28T08:18:51;11.00;99.90
5218;DHT22;26539;51.064;6.346;2023-12-28T08:21:17;11.00;1.00
5218;DHT22;26539;51.064;6.346;2023-12-28T08:23:43;11.00;1.00
5218;DHT22;26539;51.064;6.346;2023-12-28T08:26:09;11.00;1.00
5218;DHT22;26539;51.064;6.346;2023-12-28T08:28:35;11.00;1.00
5218;DHT22;26539;51.064;6.346;2023-12-28T08:31:00;11.00;99.90
5218;DHT22;26539;51.064;6.346;2023-12-28T08:33:26;11.00;99.90
5218;DHT22;26539;51.064;6.346;2023-12-28T08:35:51;11.10;99.90
5218;DHT22;26539;51.064;6.346;2023-12-28T08:38:17;11.20;99.90
5218;DHT22;26539;51.064;6.346;2023-12-28T08:40:42;11.30;1.00
5218;DHT22;26539;51.064;6.346;2023-12-28T08:43:09;11.50;1.00
5218;DHT22;26539;51.064;6.346;2023-12-28T08:45:35;11.80;99.90
5218;DHT22;26539;51.064;6.346;2023-12-28T08:48:01;11.90;11.00
5218;DHT22;26539;51.064;6.346;2023-12-28T08:50:26;12.00;1.00
5218;DHT22;26539;51.064;6.346;2023-12-28T08:52:52;12.20;1.00
5218;DHT22;26539;51.064;6.346;2023-12-28T08:55:17;12.40;99.90
5218;DHT22;26539;51.064;6.346;2023-12-28T08:57:43;12.60;99.90
5218;DHT22;26539;51.064;6.346;2023-12-28T09:00:09;12.70;99.90
5218;DHT22;26539;51.064;6.346;2023-12-28T09:02:35;12.90;99.90
5218;DHT22;26539;51.064;6.346;2023-12-28T09:05:01;13.00;99.90
5218;DHT22;26539;51.064;6.346;2023-12-28T09:07:27;13.40;99.90
5218;DHT22;26539;51.064;6.346;2023-12-28T09:09:52;13.50;12.40
5218;DHT22;26539;51.064;6.346;2023-12-28T09:12:18;13.60;1.00
5218;DHT22;26539;51.064;6.346;2023-12-28T09:14:43;13.70;1.00
5218;DHT22;26539;51.064;6.346;2023-12-28T09:17:09;13.60;1.00
5218;DHT22;26539;51.064;6.346;2023-12-28T09:19:34;13.70;1.00
5218;DHT22;26539;51.064;6.346;2023-12-28T09:22:00;13.60;1.00
5218;DHT22;26539;51.064;6.346;2023-12-28T09:24:25;13.70;1.00
5218;DHT22;26539;51.064;6.346;2023-12-28T09:26:51;13.80;1.00
5218;DHT22;26539;51.064;6.346;2023-12-28T09:29:16;13.70;1.00
5218;DHT22;26539;51.064;6.346;2023-12-28T09:31:42;13.70;1.00
5218;DHT22;26539;51.064;6.346;2023-12-28T09:34:07;13.80;1.00
5218;DHT22;26539;51.064;6.346;2023-12-28T09:36:33;13.80;1.00
5218;DHT22;26539;51.064;6.346;2023-12-28T09:38:58;13.90;1.00
5218;DHT22;26539;51.064;6.346;2023-12-28T09:41:30;14.00;1.00
5218;DHT22;26539;51.064;6.346;2023-12-28T09:44:12;14.00;1.00
5218;DHT22;26539;51.064;6.346;2023-12-28T09:46:41;14.10;1.00
5218;DHT22;26539;51.064;6.346;2023-12-28T09:49:07;14.20;1.00
5218;DHT22;26539;51.064;6.346;2023-12-28T09:51:33;14.20;1.00
5218;DHT22;26539;51.064;6.346;2023-12-28T09:53:59;14.20;1.00
5218;DHT22;26539;51.064;6.346;2023-12-28T09:56:24;14.50;1.00
5218;DHT22;26539;51.064;6.346;2023-12-28T09:58:51;14.50;1.00
5218;DHT22;26539;51.064;6.346;2023-12-28T10:01:17;14.50;1.00
5218;DHT22;26539;51.064;6.346;2023-12-28T10:03:43;14.50;1.00
5218;DHT22;26539;51.064;6.346;2023-12-28T10:06:09;14.40;1.00
5218;DHT22;26539;51.064;6.346;2023-12-28T10:08:34;14.40;1.00
5218;DHT22;26539;51.064;6.346;2023-12-28T10:11:02;14.40;1.00
5218;DHT22;26539;51.064;6.346;2023-12-28T10:13:28;14.40;1.00
5218;DHT22;26539;51.064;6.346;2023-12-28T10:15:57;14.40;1.00
5218;DHT22;26539;51.064;6.346;2023-12-28T10:18:23;14.40;1.00
5218;DHT22;26539;51.064;6.346;2023-12-28T10:20:53;14.40;1.00
5218;DHT22;26539;51.064;6.346;2023-12-28T10:23:23;14.40;1.00
5218;DHT22;26539;51.064;6.346;2023-12-28T10:25:50;14.40;1.00
5218;DHT22;26539;51.064;6.346;2023-12-28T10:28:18;14.40;1.00
5218;DHT22;26539;51.064;6.346;2023-12-28T10:30:45;14.50;1.00
5218;DHT22;26539;51.064;6.346;2023-12-28T10:33:10;14.50;1.00
5218;DHT22;26539;51.064;6.346;2023-12-28T10:35:36;14.40;1.00
5218;DHT22;26539;51.064;6.346;2023-12-28T10:38:01;14.40;1.00
5218;DHT22;26539;51.064;6.346;2023-12-28T10:40:30;14.20;1.00
5218;DHT22;26539;51.064;6.346;2023-12-28T10:43:04;14.10;1.00
5218;DHT22;26539;51.064;6.346;2023-12-28T10:45:35;14.00;1.00
5218;DHT22;26539;51.064;6.346;2023-12-28T10:48:10;13.90;1.00
5218;DHT22;26539;51.064;6.346;2023-12-28T10:50:40;13.90;1.00
5218;DHT22;26539;51.064;6.346;2023-12-28T10:53:24;14.00;1.00
5218;DHT22;26539;51.064;6.346;2023-12-28T10:56:03;13.90;1.00
5218;DHT22;26539;51.064;6.346;2023-12-28T10:58:50;13.90;1.00
5218;DHT22;26539;51.064;6.346;2023-12-28T11:01:28;13.90;1.00
5218;DHT22;26539;51.064;6.346;2023-12-28T11:04:03;14.00;1.00
5218;DHT22;26539;51.064;6.346;2023-12-28T11:06:31;14.10;1.00
5218;DHT22;26539;51.064;6.346;2023-12-28T11:08:59;14.20;1.00
5218;DHT22;26539;51.064;6.346;2023-12-28T11:11:27;14.20;1.00
5218;DHT22;26539;51.064;6.346;2023-12-28T11:13:54;14.00;1.00
5218;DHT22;26539;51.064;6.346;2023-12-28T11:16:22;13.90;1.00
5218;DHT22;26539;51.064;6.346;2023-12-28T11:18:48;14.00;1.00
5218;DHT22;26539;51.064;6.346;2023-12-28T11:21:15;14.10;1.00
5218;DHT22;26539;51.064;6.346;2023-12-28T11:23:41;14.20;1.00
5218;DHT22;26539;51.064;6.346;2023-12-28T11:26:21;14.30;1.00
5218;DHT22;26539;51.064;6.346;2023-12-28T11:28:47;14.50;1.00
5218;DHT22;26539;51.064;6.346;2023-12-28T11:31:17;14.60;1.00
5218;DHT22;26539;51.064;6.346;2023-12-28T11:33:47;14.80;1.00
5218;DHT22;26539;51.064;6.346;2023-12-28T11:36:25;14.90;1.00
5218;DHT22;26539;51.064;6.346;2023-12-28T11:38:57;15.30;1.00
5218;DHT22;26539;51.064;6.346;2023-12-28T11:41:26;15.40;1.00
5218;DHT22;26539;51.064;6.346;2023-12-28T11:43:55;15.30;1.00
5218;DHT22;26539;51.064;6.346;2023-12-28T11:46:21;15.20;1.00
5218;DHT22;26539;51.064;6.346;2023-12-28T11:48:47;15.30;1.00
5218;DHT22;26539;51.064;6.346;2023-12-28T11:51:12;15.30;1.00
5218;DHT22;26539;51.064;6.346;2023-12-28T11:53:38;15.60;1.00
5218;DHT22;26539;51.064;6.346;2023-12-28T11:56:04;15.80;99.90
5218;DHT22;26539;51.064;6.346;2023-12-28T11:58:34;15.70;99.90
5218;DHT22;26539;51.064;6.346;2023-12-28T12:01:01;15.80;99.90
5218;DHT22;26539;51.064;6.346;2023-12-28T12:03:27;15.90;99.90
5218;DHT22;26539;51.064;6.346;2023-12-28T12:05:52;16.10;99.90
5218;DHT22;26539;51.064;6.346;2023-12-28T12:08:19;16.30;99.90
5218;DHT22;26539;51.064;6.346;2023-12-28T12:10:45;16.40;99.90
5218;DHT22;26539;51.064;6.346;2023-12-28T12:13:10;16.20;99.90
5218;DHT22;26539;51.064;6.346;2023-12-28T12:15:36;15.90;99.90
5218;DHT22;26539;51.064;6.346;2023-12-28T12:18:03;15.60;99.90
5218;DHT22;26539;51.064;6.346;2023-12-28T12:20:29;15.80;99.90
5218;DHT22;26539;51.064;6.346;2023-12-28T12:22:59;15.80;99.90
5218;DHT22;26539;51.064;6.346;2023-12-28T12:25:24;15.70;99.90
5218;DHT22;26539;51.064;6.346;2023-12-28T12:27:50;15.70;99.90
5218;DHT22;26539;51.064;6.346;2023-12-28T12:30:15;15.90;99.90
5218;DHT22;26539;51.064;6.346;2023-12-28T12:32:41;15.90;99.90
5218;DHT22;26539;51.064;6.346;2023-12-28T12:35:09;16.00;99.90
5218;DHT22;26539;51.064;6.346;2023-12-28T12:37:37;16.00;99.90
5218;DHT22;26539;51.064;6.346;2023-12-28T12:40:03;15.90;99.90
5218;DHT22;26539;51.064;6.346;2023-12-28T12:42:31;16.00;99.90
5218;DHT22;26539;51.064;6.346;2023-12-28T12:44:57;15.90;99.90
5218;DHT22;26539;51.064;6.346;2023-12-28T12:47:23;15.80;99.90
5218;DHT22;26539;51.064;6.346;2023-12-28T12:49:51;15.70;99.90
5218;DHT22;26539;51.064;6.346;2023-12-28T12:52:16;15.70;99.90
5218;DHT22;26539;51.064;6.346;2023-12-28T12:54:42;15.60;99.90
5218;DHT22;26539;51.064;6.346;2023-12-28T12:57:08;15.40;99.90
5218;DHT22;26539;51.064;6.346;2023-12-28T12:59:33;15.30;99.90
5218;DHT22;26539;51.064;6.346;2023-12-28T13:02:00;15.20;99.90
5218;DHT22;26539;51.064;6.346;2023-12-28T13:04:26;15.10;99.90
5218;DHT22;26539;51.064;6.346;2023-12-28T13:06:52;15.00;99.90
5218;DHT22;26539;51.064;6.346;2023-12-28T13:09:17;14.80;99.90
5218;DHT22;26539;51.064;6.346;2023-12-28T13:11:43;14.70;99.90
5218;DHT22;26539;51.064;6.346;2023-12-28T13:14:09;14.60;99.90
5218;DHT22;26539;51.064;6.346;2023-12-28T13:16:34;14.50;99.90
5218;DHT22;26539;51.064;6.346;2023-12-28T13:19:00;14.40;99.90
5218;DHT22;26539;51.064;6.346;2023-12-28T13:21:25;14.30;99.90
5218;DHT22;26539;51.064;6.346;2023-12-28T13:23:51;14.30;99.90
5218;DHT22;26539;51.064;6.346;2023-12-28T13:26:16;14.20;99.90
5218;DHT22;26539;51.064;6.346;2023-12-28T13:28:42;14.20;99.90
5218;DHT22;26539;51.064;6.346;2023-12-28T13:31:08;14.20;99.90
5218;DHT22;26539;51.064;6.346;2023-12-28T13:33:33;14.30;99.90
5218;DHT22;26539;51.064;6.346;2023-12-28T13:35:59;14.20;99.90
5218;DHT22;26539;51.064;6.346;2023-12-28T13:38:24;14.20;99.90
5218;DHT22;26539;51.064;6.346;2023-12-28T13:40:50;14.10;99.90
5218;DHT22;26539;51.064;6.346;2023-12-28T13:43:16;14.10;99.90
5218;DHT22;26539;51.064;6.346;2023-12-28T13:45:41;14.00;99.90
5218;DHT22;26539;51.064;6.346;2023-12-28T13:48:07;13.90;99.90
5218;DHT22;26539;51.064;6.346;2023-12-28T13:50:34;13.90;99.90
5218;DHT22;26539;51.064;6.346;2023-12-28T13:52:59;13.90;99.90
5218;DHT22;26539;51.064;6.346;2023-12-28T13:55:25;13.90;99.90
5218;DHT22;26539;51.064;6.346;2023-12-28T13:57:50;13.80;99.90
5218;DHT22;26539;51.064;6.346;2023-12-28T14:00:16;13.80;99.90
5218;DHT22;26539;51.064;6.346;2023-12-28T14:02:42;13.70;99.90
5218;DHT22;26539;51.064;6.346;2023-12-28T14:05:07;13.70;99.90
5218;DHT22;26539;51.064;6.346;2023-12-28T14:07:33;13.60;99.90
5218;DHT22;26539;51.064;6.346;2023-12-28T14:09:58;13.60;99.90
5218;DHT22;26539;51.064;6.346;2023-12-28T14:12:24;13.50;99.90
5218;DHT22;26539;51.064;6.346;2023-12-28T14:14:50;13.50;99.90
5218;DHT22;26539;51.064;6.346;2023-12-28T14:17:15;13.40;99.90
5218;DHT22;26539;51.064;6.346;2023-12-28T14:19:45;13.40;99.90
5218;DHT22;26539;51.064;6.346;2023-12-28T14:22:11;13.30;99.90
5218;DHT22;26539;51.064;6.346;2023-12-28T14:24:37;13.30;99.90
5218;DHT22;26539;51.064;6.346;2023-12-28T14:27:03;13.20;99.90
5218;DHT22;26539;51.064;6.346;2023-12-28T14:29:29;13.20;99.90
5218;DHT22;26539;51.064;6.346;2023-12-28T14:31:55;13.20;1.00
5218;DHT22;26539;51.064;6.346;2023-12-28T14:34:21;13.10;1.00
5218;DHT22;26539;51.064;6.346;2023-12-28T14:36:47;13.00;1.00
5218;DHT22;26539;51.064;6.346;2023-12-28T14:39:16;12.90;1.00
5218;DHT22;26539;51.064;6.346;2023-12-28T14:41:44;12.90;1.00
5218;DHT22;26539;51.064;6.346;2023-12-28T14:44:10;12.90;1.00
5218;DHT22;26539;51.064;6.346;2023-12-28T14:46:36;12.90;1.00
5218;DHT22;26539;51.064;6.346;2023-12-28T14:49:01;12.80;1.00
5218;DHT22;26539;51.064;6.346;2023-12-28T14:51:29;12.70;1.00
5218;DHT22;26539;51.064;6.346;2023-12-28T14:53:54;12.70;1.00
5218;DHT22;26539;51.064;6.346;2023-12-28T14:56:20;12.60;1.00
5218;DHT22;26539;51.064;6.346;2023-12-28T14:58:46;12.50;1.00
5218;DHT22;26539;51.064;6.346;2023-12-28T15:01:17;12.50;1.00
5218;DHT22;26539;51.064;6.346;2023-12-28T15:03:43;12.40;1.00
5218;DHT22;26539;51.064;6.346;2023-12-28T15:06:09;12.40;1.00
5218;DHT22;26539;51.064;6.346;2023-12-28T15:08:35;12.30;1.00
5218;DHT22;26539;51.064;6.346;2023-12-28T15:11:01;12.30;1.00
5218;DHT22;26539;51.064;6.346;2023-12-28T15:13:27;12.20;1.00
5218;DHT22;26539;51.064;6.346;2023-12-28T15:15:53;12.20;1.00
5218;DHT22;26539;51.064;6.346;2023-12-28T15:18:19;12.20;1.00
5218;DHT22;26539;51.064;6.346;2023-12-28T15:20:46;12.10;1.00
5218;DHT22;26539;51.064;6.346;2023-12-28T15:23:12;12.10;1.00
5218;DHT22;26539;51.064;6.346;2023-12-28T15:25:38;12.00;1.00
5218;DHT22;26539;51.064;6.346;2023-12-28T15:28:04;12.00;1.00
5218;DHT22;26539;51.064;6.346;2023-12-28T15:30:30;11.90;1.00
5218;DHT22;26539;51.064;6.346;2023-12-28T15:32:55;11.90;1.00
5218;DHT22;26539;51.064;6.346;2023-12-28T15:35:21;11.90;1.00
5218;DHT22;26539;51.064;6.346;2023-12-28T15:37:47;11.80;1.00
5218;DHT22;26539;51.064;6.346;2023-12-28T15:40:12;11.80;1.00
5218;DHT22;26539;51.064;6.346;2023-12-28T15:42:38;11.80;1.00
5218;DHT22;26539;51.064;6.346;2023-12-28T15:45:04;11.80;1.00
5218;DHT22;26539;51.064;6.346;2023-12-28T15:47:31;11.80;1.00